Time;durP1;ratioP1;P1;durP2;ratioP2;P2;SDS_P1;SDS_P2;PMS_P1;PMS_P2;Temp;Humidity;BMP_temperature;BMP_pressure;BME280_temperature;BME280_humidity;BME280_pressure;Samples;Min_cycle;Max_cycle;Signal;HPM_P1;HPM_P2
2023/12/05 00:00:44;;;;;;;;;;;;;;;18.87;35.48;99720.19;5086842;28;19920;-64
2023/12/05 00:03:09;;;;;;;;;;;;;;;18.84;35.31;99723.97;5087175;28;20024;-64
2023/12/05 00:05:34;;;;;;;;;;;;;;;18.83;35.70;99713.53;5086875;28;19927;-64
2023/12/05 00:07:59;;;;;;;;;;;;;;;18.82;35.60;99717.16;5086953;28;20343;-64
2023/12/05 00:10:25;;;;;;;;;;;;;;;18.80;35.28;99713.84;5086797;28;19920;-64
2023/12/05 00:12:50;;;;;;;;;;;;;;;18.78;35.29;99710.53;5085949;28;19965;-65
2023/12/05 00:15:15;;;;;;;;;;;;;;;18.77;35.46;99715.00;5086958;28;20007;-64
2023/12/05 00:17:40;;;;;;;;;;;;;;;18.75;35.67;99711.66;5086938;28;19968;-65
2023/12/05 00:20:06;;;;;;;;;;;;;;;18.75;35.58;99713.50;5086718;28;19970;-64
2023/12/05 00:22:31;;;;;;;;;;;;;;;18.73;35.27;99710.19;5087115;28;19920;-64
2023/12/05 00:24:56;;;;;;;;;;;;;;;18.72;35.20;99700.59;5086874;28;19920;-64
2023/12/05 00:27:21;;;;;;;;;;;;;;;18.71;35.45;99691.88;5087168;28;19927;-65
2023/12/05 00:29:49;;;;;;;;;;;;;;;18.68;35.20;99698.28;5077567;28;20114;-64
2023/12/05 00:32:15;;;;;;;;;;;;;;;18.67;35.42;99699.28;5075155;28;20031;-65
2023/12/05 00:34:40;;;;;;;;;;;;;;;18.65;35.44;99703.03;5066654;28;19956;-65
2023/12/05 00:37:05;;;;;;;;;;;;;;;18.64;35.40;99702.22;5065536;28;19924;-67
2023/12/05 00:39:30;;;;;;;;;;;;;;;18.64;35.14;99701.38;5066202;28;20290;-65
2023/12/05 00:41:55;;;;;;;;;;;;;;;18.62;35.29;99706.00;5068210;28;19951;-66
2023/12/05 00:44:21;;;;;;;;;;;;;;;18.60;35.26;99700.88;5086365;28;19960;-68
2023/12/05 00:46:46;;;;;;;;;;;;;;;18.59;35.34;99699.19;5087018;28;19920;-64
2023/12/05 00:49:11;;;;;;;;;;;;;;;18.58;35.48;99702.84;5087145;28;20013;-66
2023/12/05 00:51:37;;;;;;;;;;;;;;;18.57;35.38;99698.53;5087186;28;19927;-66
2023/12/05 00:54:02;;;;;;;;;;;;;;;18.56;35.26;99696.06;5083801;28;19947;-65
2023/12/05 00:56:27;;;;;;;;;;;;;;;18.56;35.12;99701.31;5066656;28;19947;-65
2023/12/05 00:58:52;;;;;;;;;;;;;;;18.54;35.17;99695.38;5066835;28;20382;-66
2023/12/05 01:01:18;;;;;;;;;;;;;;;18.52;35.28;99700.81;5066696;28;20416;-66
2023/12/05 01:03:43;;;;;;;;;;;;;;;18.51;35.34;99698.34;5066922;28;19921;-65
2023/12/05 01:06:08;;;;;;;;;;;;;;;18.51;35.30;99695.69;5066621;28;19920;-67
2023/12/05 01:08:33;;;;;;;;;;;;;;;18.49;35.50;99696.66;5067027;28;20733;-65
2023/12/05 01:10:59;;;;;;;;;;;;;;;18.48;35.23;99696.81;5066766;28;20323;-66
2023/12/05 01:13:24;;;;;;;;;;;;;;;18.46;35.26;99698.78;5066464;28;19920;-67
2023/12/05 01:15:49;;;;;;;;;;;;;;;18.47;35.11;99692.56;5066603;28;19921;-67
2023/12/05 01:18:15;;;;;;;;;;;;;;;18.45;35.33;99690.06;5066678;28;19940;-65
2023/12/05 01:20:40;;;;;;;;;;;;;;;18.44;35.23;99684.94;5066791;28;20273;-66
2023/12/05 01:23:05;;;;;;;;;;;;;;;18.44;35.51;99683.13;5066399;28;19920;-66
2023/12/05 01:25:30;;;;;;;;;;;;;;;18.44;35.51;99682.31;5069758;28;19924;-66
2023/12/05 01:27:55;;;;;;;;;;;;;;;18.42;35.18;99684.25;5086743;28;19920;-66
2023/12/05 01:30:21;;;;;;;;;;;;;;;18.42;35.44;99685.09;5075094;28;20328;-66
2023/12/05 01:32:46;;;;;;;;;;;;;;;18.41;35.45;99678.16;5069892;28;21263;-67
2023/12/05 01:35:11;;;;;;;;;;;;;;;18.41;35.11;99688.69;5051625;28;19956;-68
2023/12/05 01:37:38;;;;;;;;;;;;;;;18.40;35.21;99686.22;5069657;28;19958;-65
2023/12/05 01:40:03;;;;;;;;;;;;;;;18.40;35.45;99683.59;5068515;28;20590;-65
2023/12/05 01:42:29;;;;;;;;;;;;;;;18.38;35.35;99681.09;5069324;28;20042;-66
2023/12/05 01:44:54;;;;;;;;;;;;;;;18.38;35.14;99686.38;5069574;28;20231;-65
2023/12/05 01:47:19;;;;;;;;;;;;;;;18.37;35.47;99679.44;5070023;28;20303;-66
2023/12/05 01:49:45;;;;;;;;;;;;;;;18.37;35.17;99689.16;5069779;28;19920;-66
2023/12/05 01:52:10;;;;;;;;;;;;;;;18.35;35.38;99688.50;5069676;28;19935;-65
2023/12/05 01:54:37;;;;;;;;;;;;;;;18.35;35.24;99688.50;5069664;28;19920;-65
2023/12/05 01:57:02;;;;;;;;;;;;;;;18.33;35.39;99687.84;5069721;28;19912;-64
2023/12/05 01:59:28;;;;;;;;;;;;;;;18.32;35.08;99694.91;5069753;28;19913;-65
2023/12/05 02:01:54;;;;;;;;;;;;;;;18.30;35.04;99695.03;5069310;28;19958;-66
2023/12/05 02:04:19;;;;;;;;;;;;;;;18.30;35.34;99696.88;5069803;28;19916;-66
2023/12/05 02:06:48;;;;;;;;;;;;;;;18.29;35.32;99689.94;5069733;28;20003;-66
2023/12/05 02:09:14;;;;;;;;;;;;;;;18.29;35.27;99700.47;5069443;28;19920;-67
2023/12/05 02:11:42;;;;;;;;;;;;;;;18.27;35.29;99699.81;5069588;28;20233;-67
2023/12/05 02:14:08;;;;;;;;;;;;;;;18.27;35.19;99698.00;5069424;28;19920;-65
2023/12/05 02:16:39;;;;;;;;;;;;;;;18.27;35.41;99697.16;5051027;28;19957;-65
2023/12/05 02:19:16;;;;;;;;;;;;;;;18.26;35.20;99701.63;5069148;28;19913;-66
2023/12/05 02:21:43;;;;;;;;;;;;;;;18.26;35.26;99693.72;5068436;28;19999;-65
2023/12/05 02:24:11;;;;;;;;;;;;;;;18.25;35.17;99697.31;5068789;28;19913;-65
2023/12/05 02:26:47;;;;;;;;;;;;;;;18.25;35.17;99696.50;5068434;28;19920;-65
2023/12/05 02:29:12;;;;;;;;;;;;;;;18.23;35.47;99695.81;5068316;28;20307;-64
2023/12/05 02:31:37;;;;;;;;;;;;;;;18.24;35.43;99695.66;5068546;28;19912;-64
2023/12/05 02:34:03;;;;;;;;;;;;;;;18.22;35.22;99688.91;5067816;28;20339;-65
2023/12/05 02:36:34;;;;;;;;;;;;;;;18.23;35.35;99698.44;5068973;28;19917;-64
2023/12/05 02:39:07;;;;;;;;;;;;;;;18.22;35.22;99691.53;5069276;28;20393;-64
2023/12/05 02:41:32;;;;;;;;;;;;;;;18.21;35.06;99695.16;5068788;28;19919;-64
2023/12/05 02:44:09;;;;;;;;;;;;;;;18.20;35.27;99686.41;5068518;28;19916;-65
2023/12/05 02:46:36;;;;;;;;;;;;;;;18.19;35.14;99692.66;5068715;28;20003;-66
2023/12/05 02:49:02;;;;;;;;;;;;;;;18.19;35.29;99686.56;5069095;28;19946;-64
2023/12/05 02:51:28;;;;;;;;;;;;;;;18.16;35.10;99687.69;5050776;28;20383;-64
2023/12/05 02:53:53;;;;;;;;;;;;;;;18.17;35.11;99685.91;5068516;28;19912;-64
2023/12/05 02:56:18;;;;;;;;;;;;;;;18.17;35.26;99685.91;5068331;28;19925;-64
2023/12/05 02:58:43;;;;;;;;;;;;;;;18.16;35.49;99685.06;5068383;28;19986;-64
2023/12/05 03:01:09;;;;;;;;;;;;;;;18.15;35.53;99680.78;5068148;28;20371;-64
2023/12/05 03:03:34;;;;;;;;;;;;;;;18.15;35.38;99680.78;5068503;28;19912;-64
2023/12/05 03:05:59;;;;;;;;;;;;;;;18.14;35.37;99676.47;5068257;28;19966;-65
2023/12/05 03:08:24;;;;;;;;;;;;;;;18.13;35.17;99678.28;5068547;28;19916;-64
2023/12/05 03:10:49;;;;;;;;;;;;;;;18.14;35.18;99668.56;5068376;28;20357;-65
2023/12/05 03:13:15;;;;;;;;;;;;;;;18.13;35.35;99670.38;5068678;28;19917;-66
2023/12/05 03:15:40;;;;;;;;;;;;;;;18.12;35.35;99674.00;5068178;28;19913;-65
2023/12/05 03:18:05;;;;;;;;;;;;;;;18.11;35.52;99669.69;5068324;28;19920;-64
2023/12/05 03:20:30;;;;;;;;;;;;;;;18.10;35.32;99670.69;5067955;28;19919;-65
2023/12/05 03:22:55;;;;;;;;;;;;;;;18.10;35.39;99673.31;5068210;28;20351;-64
2023/12/05 03:25:21;;;;;;;;;;;;;;;18.10;35.27;99672.47;5068117;28;19956;-64
2023/12/05 03:27:46;;;;;;;;;;;;;;;18.09;35.47;99671.66;5068283;28;19913;-64
2023/12/05 03:30:11;;;;;;;;;;;;;;;18.08;35.15;99666.53;5067152;28;19950;-64
2023/12/05 03:32:36;;;;;;;;;;;;;;;18.08;35.42;99672.63;5067662;28;19912;-65
2023/12/05 03:35:02;;;;;;;;;;;;;;;18.08;35.30;99675.25;5067617;28;19913;-65
2023/12/05 03:37:27;;;;;;;;;;;;;;;18.07;35.35;99678.91;5067396;28;19963;-65
2023/12/05 03:39:52;;;;;;;;;;;;;;;18.06;35.36;99677.22;5067341;28;20011;-65
2023/12/05 03:42:17;;;;;;;;;;;;;;;18.07;35.40;99681.53;5067117;28;20366;-64
2023/12/05 03:44:42;;;;;;;;;;;;;;;18.06;35.40;99689.59;5067059;28;19913;-65
2023/12/05 03:47:08;;;;;;;;;;;;;;;18.05;35.21;99686.09;5067563;28;19958;-65
2023/12/05 03:49:33;;;;;;;;;;;;;;;18.05;35.35;99690.56;5067643;28;19912;-65
2023/12/05 03:52:01;;;;;;;;;;;;;;;18.04;35.41;99689.75;5066972;28;19916;-65
2023/12/05 03:54:26;;;;;;;;;;;;;;;18.04;35.15;99688.91;5067711;28;19912;-66
2023/12/05 03:56:51;;;;;;;;;;;;;;;18.02;35.43;99689.06;5067995;28;19920;-65
2023/12/05 03:59:16;;;;;;;;;;;;;;;18.01;35.30;99697.97;5067169;28;19959;-63
2023/12/05 04:01:41;;;;;;;;;;;;;;;18.01;35.54;99691.84;5067434;28;20007;-65
2023/12/05 04:04:07;;;;;;;;;;;;;;;18.00;35.63;99700.75;5067472;28;19920;-64
2023/12/05 04:06:32;;;;;;;;;;;;;;;18.00;35.38;99701.56;5067571;28;19967;-67
2023/12/05 04:08:57;;;;;;;;;;;;;;;18.01;35.39;99707.66;5076207;28;20026;-66
2023/12/05 04:11:32;;;;;;;;;;;;;;;18.00;35.25;99708.66;5087367;28;19920;-65
2023/12/05 04:13:57;;;;;;;;;;;;;;;17.98;35.38;99714.06;5087541;28;19958;-65
2023/12/05 04:16:23;;;;;;;;;;;;;;;17.99;35.54;99707.84;5068867;28;19920;-65
2023/12/05 04:18:49;;;;;;;;;;;;;;;17.98;35.40;99713.25;5087017;28;20036;-67
2023/12/05 04:21:16;;;;;;;;;;;;;;;17.98;35.34;99714.06;5086909;28;19912;-65
2023/12/05 04:23:42;;;;;;;;;;;;;;;17.97;35.22;99715.03;5086880;28;19943;-65
2023/12/05 04:26:07;;;;;;;;;;;;;;;17.95;35.33;99712.56;5086488;28;20316;-64
2023/12/05 04:28:32;;;;;;;;;;;;;;;17.96;35.39;99718.69;5074431;28;19916;-66
2023/12/05 04:30:57;;;;;;;;;;;;;;;17.95;35.45;99720.47;5066025;28;20053;-65
2023/12/05 04:33:23;;;;;;;;;;;;;;;17.94;35.55;99713.56;5067281;28;19920;-66
2023/12/05 04:35:48;;;;;;;;;;;;;;;17.94;35.32;99715.34;5067044;28;20266;-64
2023/12/05 04:38:13;;;;;;;;;;;;;;;17.93;35.62;99717.16;5067426;28;20303;-66
2023/12/05 04:40:38;;;;;;;;;;;;;;;17.93;35.62;99724.25;5067104;28;19932;-65
2023/12/05 04:43:03;;;;;;;;;;;;;;;17.93;35.48;99727.69;5066656;28;20262;-66
2023/12/05 04:45:29;;;;;;;;;;;;;;;17.92;35.41;99728.66;5066873;28;19916;-65
2023/12/05 04:47:54;;;;;;;;;;;;;;;17.92;35.35;99725.22;5067180;28;19916;-66
2023/12/05 04:50:20;;;;;;;;;;;;;;;17.92;35.34;99733.13;5066887;28;19913;-65
2023/12/05 04:52:45;;;;;;;;;;;;;;;17.91;35.63;99734.09;5067123;28;19928;-65
2023/12/05 04:55:10;;;;;;;;;;;;;;;17.91;35.35;99736.72;5066902;28;19995;-65
2023/12/05 04:57:35;;;;;;;;;;;;;;;17.91;35.70;99742.00;5066421;28;19928;-66
2023/12/05 05:00:01;;;;;;;;;;;;;;;17.90;35.45;99735.91;5067025;28;19912;-65
2023/12/05 05:02:26;;;;;;;;;;;;;;;17.89;35.70;99738.69;5066903;28;20015;-64
2023/12/05 05:04:51;;;;;;;;;;;;;;;17.90;35.63;99740.38;5069174;28;19913;-64
2023/12/05 05:07:16;;;;;;;;;;;;;;;17.89;35.64;99747.41;5071166;28;20548;-63
2023/12/05 05:09:41;;;;;;;;;;;;;;;17.89;35.65;99743.97;5071200;28;19919;-65
2023/12/05 05:12:10;;;;;;;;;;;;;;;17.88;35.50;99751.06;5070643;28;20674;-65
2023/12/05 05:14:36;;;;;;;;;;;;;;;17.88;35.76;99745.78;5071007;28;20345;-65
2023/12/05 05:17:01;;;;;;;;;;;;;;;17.89;35.36;99751.88;5070629;28;19959;-64
2023/12/05 05:19:26;;;;;;;;;;;;;;;17.89;35.43;99754.50;5070759;28;19913;-63
2023/12/05 05:21:52;;;;;;;;;;;;;;;17.87;35.70;99756.44;5070920;28;19940;-64
2023/12/05 05:24:17;;;;;;;;;;;;;;;17.85;35.79;99753.97;5070588;28;19912;-65
2023/12/05 05:26:42;;;;;;;;;;;;;;;17.85;35.58;99756.59;5070700;28;19912;-64
2023/12/05 05:29:07;;;;;;;;;;;;;;;17.86;35.68;99754.78;5070324;28;19967;-65
2023/12/05 05:31:32;;;;;;;;;;;;;;;17.86;35.55;99757.41;5070384;28;19912;-64
2023/12/05 05:33:58;;;;;;;;;;;;;;;17.85;35.70;99755.75;5070126;28;19995;-64
2023/12/05 05:36:23;;;;;;;;;;;;;;;17.85;35.75;99758.38;5069628;28;20353;-64
2023/12/05 05:38:48;;;;;;;;;;;;;;;17.86;35.68;99765.31;5069665;28;19920;-64
2023/12/05 05:41:14;;;;;;;;;;;;;;;17.86;35.88;99757.41;5069822;28;19919;-64
2023/12/05 05:43:39;;;;;;;;;;;;;;;17.87;35.72;99761.72;5069286;28;19920;-64
2023/12/05 05:46:05;;;;;;;;;;;;;;;17.89;35.69;99763.22;5069611;28;19955;-64
2023/12/05 05:48:30;;;;;;;;;;;;;;;17.93;35.91;99764.59;5070132;28;20320;-65
2023/12/05 05:50:56;;;;;;;;;;;;;;;17.95;35.79;99765.28;5070450;28;19919;-64
2023/12/05 05:53:21;;;;;;;;;;;;;;;17.99;35.74;99762.34;5069707;28;20007;-66
2023/12/05 05:55:46;;;;;;;;;;;;;;;18.04;35.79;99768.00;5069934;28;19919;-66
2023/12/05 05:58:11;;;;;;;;;;;;;;;18.07;35.94;99765.91;5069867;28;20383;-65
2023/12/05 06:00:37;;;;;;;;;;;;;;;18.10;35.97;99764.75;5069850;28;19913;-65
2023/12/05 06:03:02;;;;;;;;;;;;;;;18.15;35.98;99766.94;5069956;28;20375;-66
2023/12/05 06:05:27;;;;;;;;;;;;;;;18.17;35.78;99768.47;5069807;28;20289;-67
2023/12/05 06:07:52;;;;;;;;;;;;;;;18.21;35.85;99774.25;5069913;28;19920;-65
2023/12/05 06:10:18;;;;;;;;;;;;;;;18.23;35.53;99767.88;5069940;28;19916;-68
2023/12/05 06:12:43;;;;;;;;;;;;;;;18.25;35.86;99775.63;5069644;28;20380;-65
2023/12/05 06:15:08;;;;;;;;;;;;;;;18.29;35.74;99771.69;5069215;28;19931;-65
2023/12/05 06:17:33;;;;;;;;;;;;;;;18.30;35.66;99771.53;5069685;28;19927;-65
2023/12/05 06:19:59;;;;;;;;;;;;;;;18.33;35.53;99775.69;5069614;28;19920;-67
2023/12/05 06:22:24;;;;;;;;;;;;;;;18.35;35.59;99776.34;5051463;28;20365;-64
2023/12/05 06:24:50;;;;;;;;;;;;;;;18.36;35.47;99785.09;5069777;28;19912;-67
2023/12/05 06:27:15;;;;;;;;;;;;;;;18.37;35.41;99782.31;5069342;28;19950;-66
2023/12/05 06:29:40;;;;;;;;;;;;;;;18.38;35.78;99791.06;5068912;28;20542;-65
2023/12/05 06:32:05;;;;;;;;;;;;;;;18.40;35.62;99797.00;5069404;28;20296;-68
2023/12/05 06:34:31;;;;;;;;;;;;;;;18.41;35.59;99802.13;5068813;28;19967;-65
2023/12/05 06:36:56;;;;;;;;;;;;;;;18.42;35.47;99803.81;5069111;28;19927;-67
2023/12/05 06:39:21;;;;;;;;;;;;;;;18.42;35.42;99803.81;5069437;28;19921;-65
2023/12/05 06:41:46;;;;;;;;;;;;;;;18.42;35.65;99803.81;5068735;28;19920;-66
2023/12/05 06:44:12;;;;;;;;;;;;;;;18.44;35.61;99804.47;5069100;28;19970;-66
2023/12/05 06:46:37;;;;;;;;;;;;;;;18.45;35.80;99810.56;5068721;28;19925;-67
2023/12/05 06:49:03;;;;;;;;;;;;;;;18.47;35.75;99814.72;5068889;28;19913;-67
2023/12/05 06:51:28;;;;;;;;;;;;;;;18.49;35.61;99820.66;5068788;28;19920;-65
2023/12/05 06:53:53;;;;;;;;;;;;;;;18.51;35.68;99817.06;5068031;28;20007;-67
2023/12/05 06:56:22;;;;;;;;;;;;;;;18.52;35.61;99822.19;5068551;28;19924;-65
2023/12/05 06:58:47;;;;;;;;;;;;;;;18.54;35.56;99827.31;5068292;28;19913;-67
2023/12/05 07:01:12;;;;;;;;;;;;;;;18.55;35.76;99829.81;5068518;28;19913;-65
2023/12/05 07:03:37;;;;;;;;;;;;;;;18.55;35.58;99832.44;5068143;28;19920;-66
2023/12/05 07:06:04;;;;;;;;;;;;;;;18.58;35.43;99833.94;5068429;28;19912;-65
2023/12/05 07:08:30;;;;;;;;;;;;;;;18.58;35.63;99839.19;5067818;28;19921;-65
2023/12/05 07:10:57;;;;;;;;;;;;;;;18.57;35.57;99837.56;5068036;28;20387;-65
2023/12/05 07:13:23;;;;;;;;;;;;;;;18.58;35.73;99849.75;5087869;28;20341;-64
2023/12/05 07:15:48;;;;;;;;;;;;;;;18.59;35.70;99835.59;5087908;28;19916;-64
2023/12/05 07:18:13;;;;;;;;;;;;;;;18.60;35.54;99838.09;5088186;28;19919;-64
2023/12/05 07:20:38;;;;;;;;;;;;;;;18.61;35.73;99845.03;5088271;28;19962;-65
2023/12/05 07:23:03;;;;;;;;;;;;;;;18.63;35.54;99847.53;5088225;28;19955;-64
2023/12/05 07:25:29;;;;;;;;;;;;;;;18.64;35.63;99851.78;5088096;28;20234;-65
2023/12/05 07:27:54;;;;;;;;;;;;;;;18.65;35.55;99858.75;5087480;28;20344;-63
2023/12/05 07:30:19;;;;;;;;;;;;;;;18.66;35.73;99866.50;5073980;28;20369;-65
2023/12/05 07:32:44;;;;;;;;;;;;;;;18.67;35.43;99868.19;5067759;28;20387;-63
2023/12/05 07:35:09;;;;;;;;;;;;;;;18.67;35.57;99868.19;5067314;28;19920;-65
2023/12/05 07:37:35;;;;;;;;;;;;;;;18.68;35.39;99863.72;5066743;28;20316;-64
2023/12/05 07:40:00;;;;;;;;;;;;;;;18.69;35.53;99875.91;5067693;28;19919;-64
2023/12/05 07:42:25;;;;;;;;;;;;;;;18.70;35.66;99882.03;5066974;28;19924;-63
2023/12/05 07:44:51;;;;;;;;;;;;;;;18.71;35.42;99886.31;5067288;28;19942;-65
2023/12/05 07:47:16;;;;;;;;;;;;;;;18.70;35.38;99888.13;5067243;28;19982;-65
2023/12/05 07:49:47;;;;;;;;;;;;;;;18.73;35.64;99894.94;5067808;28;19913;-65
2023/12/05 07:52:12;;;;;;;;;;;;;;;18.72;35.75;99901.19;5087893;28;19919;-66
2023/12/05 07:54:37;;;;;;;;;;;;;;;18.72;35.66;99907.28;5087770;28;19912;-65
2023/12/05 07:57:03;;;;;;;;;;;;;;;18.73;35.70;99911.59;5069373;28;19920;-63
2023/12/05 07:59:28;;;;;;;;;;;;;;;18.73;35.57;99911.59;5087924;28;19919;-64
2023/12/05 08:01:53;;;;;;;;;;;;;;;18.74;35.42;99923.81;5087675;28;19920;-66
2023/12/05 08:04:18;;;;;;;;;;;;;;;18.76;35.57;99923.66;5087901;28;19987;-65
2023/12/05 08:06:44;;;;;;;;;;;;;;;18.76;35.57;99924.50;5087680;28;20421;-65
2023/12/05 08:09:09;;;;;;;;;;;;;;;18.77;35.55;99927.94;5087476;28;19915;-64
2023/12/05 08:11:35;;;;;;;;;;;;;;;18.77;35.44;99927.94;5087643;28;19967;-64
2023/12/05 08:14:00;;;;;;;;;;;;;;;18.76;35.36;99927.13;5087465;28;19912;-63
2023/12/05 08:16:26;;;;;;;;;;;;;;;18.77;35.30;99936.72;5067336;28;19920;-66
2023/12/05 08:18:51;;;;;;;;;;;;;;;18.78;35.61;99933.06;5066821;28;20391;-65
2023/12/05 08:21:16;;;;;;;;;;;;;;;18.79;35.51;99931.28;5066394;28;19942;-64
2023/12/05 08:23:41;;;;;;;;;;;;;;;18.80;35.44;99948.75;5066609;28;19920;-65
2023/12/05 08:26:07;;;;;;;;;;;;;;;18.80;35.64;99946.97;5066523;28;19954;-66
2023/12/05 08:28:32;;;;;;;;;;;;;;;18.80;35.41;99949.63;5066807;28;19921;-65
2023/12/05 08:30:57;;;;;;;;;;;;;;;18.79;35.71;99955.88;5065918;28;21209;-66
2023/12/05 08:33:22;;;;;;;;;;;;;;;18.81;35.57;99961.00;5066986;28;19924;-66
2023/12/05 08:35:48;;;;;;;;;;;;;;;18.80;35.43;99961.97;5067195;28;19920;-65
2023/12/05 08:38:13;;;;;;;;;;;;;;;18.80;35.69;99970.72;5067047;28;20381;-63
2023/12/05 08:40:38;;;;;;;;;;;;;;;18.83;35.56;99966.94;5067045;28;19927;-65
2023/12/05 08:43:03;;;;;;;;;;;;;;;18.83;35.87;99975.72;5066566;28;19943;-65
2023/12/05 08:45:29;;;;;;;;;;;;;;;18.86;35.87;99974.59;5066628;28;19970;-65
2023/12/05 08:47:55;;;;;;;;;;;;;;;18.88;36.13;99971.81;5065306;28;19967;-66
2023/12/05 08:50:20;;;;;;;;;;;;;;;18.88;36.22;99980.53;5066635;28;19993;-66
2023/12/05 08:52:45;;;;;;;;;;;;;;;18.87;36.46;99978.06;5066652;28;20373;-66
2023/12/05 08:55:11;;;;;;;;;;;;;;;18.88;36.33;99975.28;5067155;28;19971;-64
2023/12/05 08:57:36;;;;;;;;;;;;;;;18.88;36.39;99980.53;5066266;28;20349;-66
2023/12/05 09:00:04;;;;;;;;;;;;;;;18.88;36.59;99977.09;5068697;28;20993;-66
2023/12/05 09:02:29;;;;;;;;;;;;;;;18.88;36.45;99987.66;5084757;28;19916;-66
2023/12/05 09:04:56;;;;;;;;;;;;;;;18.88;36.69;99982.38;5029039;28;19941;-67
2023/12/05 09:07:21;;;;;;;;;;;;;;;18.88;36.41;99993.75;5051550;28;19920;-66
2023/12/05 09:09:46;;;;;;;;;;;;;;;18.89;36.59;99997.25;5084979;28;19920;-67
2023/12/05 09:12:11;;;;;;;;;;;;;;;18.89;36.67;99999.88;5086670;28;20359;-65
2023/12/05 09:14:37;;;;;;;;;;;;;;;18.88;36.63;100000.84;5072258;28;19921;-66
2023/12/05 09:17:03;;;;;;;;;;;;;;;18.89;36.79;100003.34;5048564;28;19920;-66
2023/12/05 09:19:28;;;;;;;;;;;;;;;18.91;37.00;100011.09;5066173;28;20000;-65
2023/12/05 09:21:53;;;;;;;;;;;;;;;18.91;36.96;100008.47;5065984;28;20527;-67
2023/12/05 09:24:18;;;;;;;;;;;;;;;18.92;37.21;100010.16;5065772;28;20019;-63
2023/12/05 09:26:44;;;;;;;;;;;;;;;18.94;36.99;100022.19;5065913;28;20483;-65
2023/12/05 09:29:09;;;;;;;;;;;;;;;18.95;37.33;100017.75;5064208;28;19979;-64
2023/12/05 09:31:35;;;;;;;;;;;;;;;18.96;37.24;100027.31;5066058;28;20365;-65
2023/12/05 09:34:02;;;;;;;;;;;;;;;18.96;37.10;100028.19;5066297;28;19921;-64
2023/12/05 09:36:27;;;;;;;;;;;;;;;18.96;36.63;100029.97;5066302;28;19913;-65
2023/12/05 09:38:52;;;;;;;;;;;;;;;18.95;36.86;100037.06;5066437;28;19955;-64
2023/12/05 09:41:18;;;;;;;;;;;;;;;18.95;36.84;100045.00;5066278;28;20002;-64
2023/12/05 09:43:44;;;;;;;;;;;;;;;18.95;37.16;100050.28;5065771;28;19916;-66
2023/12/05 09:46:10;;;;;;;;;;;;;;;18.95;36.86;100055.56;5065327;28;19921;-64
2023/12/05 09:48:48;;;;;;;;;;;;;;;18.96;37.11;100045.81;5066159;28;19921;-64
2023/12/05 09:51:17;;;;;;;;;;;;;;;18.96;36.95;100049.31;5068547;28;20336;-66
2023/12/05 09:53:43;;;;;;;;;;;;;;;18.97;37.05;100044.84;5069441;28;20353;-65
2023/12/05 09:56:15;;;;;;;;;;;;;;;18.96;37.49;100054.59;5069873;28;19935;-65
2023/12/05 09:58:42;;;;;;;;;;;;;;;18.97;37.25;100047.47;5069627;28;19920;-68
2023/12/05 10:01:09;;;;;;;;;;;;;;;18.97;37.22;100055.41;5069645;28;19913;-67
2023/12/05 10:03:36;;;;;;;;;;;;;;;18.97;37.39;100058.03;5069369;28;20114;-67
2023/12/05 10:06:04;;;;;;;;;;;;;;;18.99;37.37;100058.72;5065584;28;19932;-63
2023/12/05 10:08:30;;;;;;;;;;;;;;;18.99;37.29;100064.00;5068602;28;19916;-65
2023/12/05 10:10:59;;;;;;;;;;;;;;;18.99;37.35;100077.19;5069263;28;19931;-64
2023/12/05 10:13:24;;;;;;;;;;;;;;;18.96;37.16;100073.06;5068144;28;20352;-68
2023/12/05 10:15:50;;;;;;;;;;;;;;;18.98;37.45;100080.84;5068734;28;19912;-67
2023/12/05 10:18:15;;;;;;;;;;;;;;;18.98;37.48;100083.47;5068373;28;19920;-66
2023/12/05 10:20:40;;;;;;;;;;;;;;;18.98;37.37;100088.75;5068521;28;19928;-64
2023/12/05 10:23:05;;;;;;;;;;;;;;;18.98;37.33;100083.47;5068514;28;19920;-64
2023/12/05 10:25:30;;;;;;;;;;;;;;;18.98;37.55;100088.75;5068532;28;19927;-64
2023/12/05 10:28:03;;;;;;;;;;;;;;;18.98;37.35;100097.50;5067695;28;19927;-67
2023/12/05 10:30:37;;;;;;;;;;;;;;;18.99;37.50;100093.03;5067364;28;20420;-66
2023/12/05 10:33:17;;;;;;;;;;;;;;;19.00;37.41;100092.06;5067931;28;19920;-66
2023/12/05 10:35:43;;;;;;;;;;;;;;;18.99;37.21;100096.53;5067729;28;19919;-62
2023/12/05 10:38:10;;;;;;;;;;;;;;;18.99;37.38;100098.31;5067900;28;19958;-64
2023/12/05 10:40:54;;;;;;;;;;;;;;;18.99;37.27;100103.59;5066569;28;19920;-66
2023/12/05 10:43:20;;;;;;;;;;;;;;;19.01;37.15;100105.13;5066579;28;20373;-64
2023/12/05 10:45:46;;;;;;;;;;;;;;;19.01;36.92;100101.66;5068420;28;19999;-65
2023/12/05 10:48:14;;;;;;;;;;;;;;;19.01;37.01;100113.06;5071630;28;20019;-64
2023/12/05 10:50:40;;;;;;;;;;;;;;;18.99;37.24;100106.25;5081426;28;19920;-66
2023/12/05 10:53:06;;;;;;;;;;;;;;;18.99;37.10;100111.53;5088892;28;19927;-65
2023/12/05 10:55:31;;;;;;;;;;;;;;;18.98;37.11;100116.00;5088801;28;19920;-66
2023/12/05 10:57:56;;;;;;;;;;;;;;;18.97;36.98;100116.94;5088072;28;20364;-66
2023/12/05 11:00:22;;;;;;;;;;;;;;;18.97;37.05;100118.78;5088718;28;19920;-65
2023/12/05 11:02:48;;;;;;;;;;;;;;;18.98;36.89;100123.09;5074788;28;20348;-67
2023/12/05 11:05:14;;;;;;;;;;;;;;;18.96;37.09;100120.59;5067076;28;19925;-65
2023/12/05 11:07:39;;;;;;;;;;;;;;;18.96;36.90;100123.22;5068418;28;19916;-64
2023/12/05 11:10:06;;;;;;;;;;;;;;;18.97;37.08;100118.78;5068621;28;20326;-66
2023/12/05 11:12:31;;;;;;;;;;;;;;;18.96;36.89;100119.75;5067518;28;20344;-69
2023/12/05 11:14:58;;;;;;;;;;;;;;;18.94;36.94;100127.81;5068320;28;19964;-72
2023/12/05 11:17:39;;;;;;;;;;;;;;;18.94;36.83;100127.81;5066812;28;19920;-66
2023/12/05 11:20:20;;;;;;;;;;;;;;;18.92;37.07;100132.41;5065134;28;19920;-67
2023/12/05 11:22:49;;;;;;;;;;;;;;;18.91;37.19;100128.09;5065555;28;20313;-66
2023/12/05 11:25:26;;;;;;;;;;;;;;;18.91;37.36;100136.03;5067550;28;21059;-67
2023/12/05 11:27:54;;;;;;;;;;;;;;;18.89;37.20;100138.00;5066703;28;19932;-66
2023/12/05 11:30:38;;;;;;;;;;;;;;;18.89;37.12;100140.63;5066709;28;19920;-67
2023/12/05 11:33:06;;;;;;;;;;;;;;;18.91;37.47;100146.59;5068975;28;19917;-63
2023/12/05 11:35:50;;;;;;;;;;;;;;;18.91;37.12;100145.75;5086881;28;19974;-64
2023/12/05 11:38:17;;;;;;;;;;;;;;;18.90;37.29;100149.38;5086215;28;19934;-66
2023/12/05 11:40:42;;;;;;;;;;;;;;;18.89;37.39;100151.19;5086195;28;19920;-67
2023/12/05 11:43:11;;;;;;;;;;;;;;;18.90;37.17;100152.00;5086443;28;19916;-68
2023/12/05 11:45:40;;;;;;;;;;;;;;;18.89;37.02;100156.47;5066384;28;19913;-66
2023/12/05 11:48:05;;;;;;;;;;;;;;;18.88;37.09;100156.63;5074247;28;19924;-66
2023/12/05 11:50:40;;;;;;;;;;;;;;;18.88;37.26;100156.63;5087750;28;19926;-65
2023/12/05 11:53:07;;;;;;;;;;;;;;;18.88;37.36;100175.09;5087190;28;19924;-65
2023/12/05 11:55:32;;;;;;;;;;;;;;;18.87;37.10;100178.69;5081393;28;20384;-66
2023/12/05 11:57:59;;;;;;;;;;;;;;;18.85;37.17;100174.41;5067361;28;19912;-66
2023/12/05 12:00:26;;;;;;;;;;;;;;;18.87;37.07;100184.84;5067285;28;20379;-68
2023/12/05 12:02:56;;;;;;;;;;;;;;;18.84;36.98;100180.66;5067088;28;19921;-69
2023/12/05 12:05:21;;;;;;;;;;;;;;;18.84;37.24;100191.22;5066866;28;19927;-71
2023/12/05 12:07:52;;;;;;;;;;;;;;;18.84;37.03;100185.13;5067063;28;19912;-70
2023/12/05 12:10:18;;;;;;;;;;;;;;;18.83;36.99;100184.28;5086731;28;19923;-69
2023/12/05 12:12:44;;;;;;;;;;;;;;;18.84;37.31;100190.41;5086912;28;19913;-70
2023/12/05 12:15:10;;;;;;;;;;;;;;;18.83;37.25;100189.53;5086632;28;20292;-70
2023/12/05 12:17:38;;;;;;;;;;;;;;;18.83;36.99;100192.19;5083841;28;19920;-69
2023/12/05 12:20:04;;;;;;;;;;;;;;;18.82;37.07;100194.97;5066674;28;19916;-70
2023/12/05 12:22:29;;;;;;;;;;;;;;;18.82;37.03;100197.63;5066271;28;19923;-69
2023/12/05 12:25:13;;;;;;;;;;;;;;;18.82;36.89;100200.25;5081517;28;19924;-70
2023/12/05 12:27:39;;;;;;;;;;;;;;;18.82;36.96;100209.00;5086115;28;19981;-70
2023/12/05 12:30:07;;;;;;;;;;;;;;;18.82;36.71;100210.81;5073580;28;20428;-69
2023/12/05 12:32:32;;;;;;;;;;;;;;;18.81;36.64;100209.97;5065938;28;19912;-69
2023/12/05 12:34:59;;;;;;;;;;;;;;;18.81;36.64;100212.59;5081218;28;20057;-69
2023/12/05 12:37:26;;;;;;;;;;;;;;;18.80;36.86;100218.03;5067057;28;19960;-68